»·PEaware :: N747KT KSBP-KHAF

N747KT :: KSBP-KHAF

FLIGHT INFORMATION

Flight Status: Arrived
Operator: Privately registered:
United States
More flights under this callsign
Pilot: Michael M. (12217)
Aircraft: ECLIPSE 500
(EA50)
More flights by this aircraft type
Origin: KSBP San Luis Co Regl
United States
Destination: KHAF Half Moon Bay
United States
More flights between these airports :: More routes between these airports
Route: +PRB V25 SAPID
File this flight plan on PilotEdge
Remarks:
Altitude:
(Current/Filed)
6,000ft
Speed:
(Current/Filed)
200kts
Departed: 21-Sep-17 08:46 AM
Arrived: 21-Sep-17 09:29 AM
Distance/Time
Traveled:
163nm/0:43
Distance/Time
To Go:
Arrived

Flight Plot

Page will automatically refresh every two minutes.

Flight plan parsing failed; only flown route is shown


Map Options




Map Legend


Flown Route
Filed Route
Departure Airport
Arrival Airport
Navaid (VOR, NDB)
Fix

Horizontal Profiles

Position Reports

Time Latitude Longitude Heading Altitude Ground
Speed
21-Sep-17 08:29 35.238838 -120.641187 350 185ft 0kts
21-Sep-17 08:30 35.238838 -120.641187 350 185ft 0kts
21-Sep-17 08:31 35.238838 -120.641187 350 185ft 0kts
21-Sep-17 08:32 35.238838 -120.641187 350 185ft 0kts
21-Sep-17 08:33 35.238838 -120.641187 350 185ft 0kts
21-Sep-17 08:34 35.238838 -120.641187 350 185ft 0kts
21-Sep-17 08:35 35.238838 -120.641187 350 185ft 0kts
21-Sep-17 08:36 35.238838 -120.641187 350 185ft 0kts
21-Sep-17 08:37 35.238838 -120.641187 350 185ft 0kts
21-Sep-17 08:38 35.238838 -120.641187 350 185ft 0kts
21-Sep-17 08:39 35.238838 -120.641187 350 185ft 0kts
21-Sep-17 08:40 35.238838 -120.641187 350 185ft 0kts
21-Sep-17 08:41 35.238247 -120.640699 137 187ft 10kts
21-Sep-17 08:42 35.236617 -120.637752 126 199ft 12kts
21-Sep-17 08:43 35.235139 -120.635225 125 209ft 1kts
21-Sep-17 08:44 35.233748 -120.632775 123 212ft 0kts
21-Sep-17 08:45 35.233722 -120.632728 123 212ft 0kts
21-Sep-17 08:46 35.233251 -120.632137 170 212ft 0kts
21-Sep-17 08:47 35.232926 -120.632069 170 212ft 0kts
21-Sep-17 08:48 35.233542 -120.631968 283 213ft 17kts
21-Sep-17 08:49 35.232954 -120.632618 214 211ft 10kts
21-Sep-17 08:50 35.244063 -120.653521 301 969ft 129kts
21-Sep-17 08:51 35.267829 -120.700495 301 2706ft 194kts
21-Sep-17 08:52 35.297890 -120.759160 302 4705ft 207kts
21-Sep-17 08:53 35.337848 -120.807053 359 5977ft 245kts
21-Sep-17 08:54 35.405885 -120.771730 21 6003ft 278kts
21-Sep-17 08:55 35.477414 -120.733161 21 5920ft 295kts
21-Sep-17 08:56 35.550021 -120.693824 20 5996ft 268kts
21-Sep-17 08:57 35.614605 -120.659014 19 6558ft 236kts
21-Sep-17 08:58 35.671609 -120.637967 327 8372ft 216kts
21-Sep-17 08:59 35.725350 -120.682952 318 9987ft 254kts
21-Sep-17 09:00 35.789205 -120.742382 318 10006ft 312kts
21-Sep-17 09:01 35.854360 -120.804573 317 9999ft 286kts
21-Sep-17 09:02 35.916428 -120.864730 317 10001ft 284kts
21-Sep-17 09:03 35.978077 -120.924943 317 10001ft 284kts
21-Sep-17 09:04 36.039950 -120.985600 317 10001ft 285kts
21-Sep-17 09:05 36.101676 -121.046177 317 10000ft 284kts
21-Sep-17 09:06 36.162060 -121.105471 317 9998ft 284kts
21-Sep-17 09:07 36.224350 -121.166695 316 10015ft 287kts
21-Sep-17 09:08 36.286935 -121.228558 316 9989ft 288kts
21-Sep-17 09:09 36.349041 -121.290147 317 9988ft 287kts
21-Sep-17 09:10 36.411344 -121.351887 316 9988ft 288kts
21-Sep-17 09:11 36.475003 -121.415355 317 9992ft 307kts
21-Sep-17 09:12 36.543581 -121.483687 317 9989ft 322kts
21-Sep-17 09:13 36.613130 -121.553019 317 10003ft 322kts
21-Sep-17 09:14 36.678710 -121.627269 307 10001ft 318kts
21-Sep-17 09:15 36.735837 -121.710774 305 9998ft 313kts
21-Sep-17 09:16 36.784975 -121.783087 305 9531ft 253kts
21-Sep-17 09:17 36.831915 -121.853371 306 8068ft 264kts
21-Sep-17 09:18 36.877722 -121.921791 307 6966ft 253kts
21-Sep-17 09:19 36.922018 -121.988255 308 6007ft 244kts
21-Sep-17 09:20 36.969498 -122.059094 309 5989ft 269kts
21-Sep-17 09:21 37.029067 -122.096164 334 5987ft 226kts
21-Sep-17 09:22 37.086597 -122.126420 334 5989ft 224kts
21-Sep-17 09:23 37.143869 -122.155789 334 5990ft 224kts
21-Sep-17 09:24 37.199327 -122.189565 320 5636ft 221kts
21-Sep-17 09:25 37.247311 -122.236390 320 4631ft 217kts
21-Sep-17 09:26 37.294427 -122.282847 321 3993ft 217kts
21-Sep-17 09:27 37.341531 -122.329425 321 3981ft 216kts
21-Sep-17 09:28 37.388568 -122.376195 320 3347ft 216kts
21-Sep-17 09:29 37.432213 -122.423278 321 1904ft 195kts
21-Sep-17 09:30 37.466549 -122.451148 324 1139ft 136kts
21-Sep-17 09:31 37.492755 -122.477438 319 565ft 116kts
21-Sep-17 09:32 37.513032 -122.500803 323 42ft 65kts
21-Sep-17 09:33 37.518820 -122.506415 45 69ft 0kts
21-Sep-17 09:34 37.519355 -122.505608 111 69ft 0kts
21-Sep-17 09:35 37.516628 -122.501793 126 52ft 13kts
21-Sep-17 09:36 37.514727 -122.498172 123 45ft 11kts
21-Sep-17 09:37 37.514099 -122.497139 136 44ft 4kts
21-Sep-17 09:38 37.511764 -122.493406 133 39ft 10kts
21-Sep-17 09:39 37.509711 -122.490690 131 35ft 0kts

Navigation Log

Ident Type
Flight plan parsing failed, navigation log unavailable